Private Wetterstation Wechselburg
Wetterdaten: Samstag, 29.09.2012
Datum Zeit Temp. +2m Bodentemp. Temp.+5cm Temp. Wind Windchill X Diff Temp. Feuchte +2m Feuchte +5cm Sonnenschein Luftdruck Regen Wind Richtung Richtung Sonnenschein UV Taupunkt Windchill Windben
29.09.2012 00:00 6,8 C 19,9 C 8,3 C 6,8 C 6,7 C 0,0 C 88 % 89 % 0 % 1019,1 hPa 0,0 l/m 0,0 km/h (0 Bft) N-NO 22 0 min 0,0 UV-I 5,0 C 6,7 C 0,0 km/h (0 Bft)
29.09.2012 00:05 6,9 C 19,9 C 8,3 C 6,8 C 6,6 C 0,0 C 88 % 90 % 0 % 1018,8 hPa 0,0 l/m 0,0 km/h (0 Bft) N-NO 22 0 min 0,0 UV-I 5,1 C 6,6 C 0,0 km/h (0 Bft)
29.09.2012 00:10 6,7 C 19,9 C 8,3 C 6,7 C 6,6 C 0,0 C 88 % 90 % 0 % 1018,8 hPa 0,0 l/m 0,0 km/h (0 Bft) NO 45 0 min 0,0 UV-I 4,9 C 6,6 C 0,0 km/h (0 Bft)
29.09.2012 00:15 6,7 C 19,9 C 8,3 C 6,7 C 6,6 C 0,0 C 88 % 90 % 0 % 1018,8 hPa 0,0 l/m 0,0 km/h (0 Bft) NO 45 0 min 0,0 UV-I 4,9 C 6,6 C 0,0 km/h (0 Bft)
29.09.2012 00:20 6,7 C 19,9 C 8,1 C 6,7 C 6,6 C 0,0 C 88 % 90 % 0 % 1018,8 hPa 0,0 l/m 0,0 km/h (0 Bft) O-NO 67 0 min 0,0 UV-I 4,9 C 6,6 C 0,0 km/h (0 Bft)
29.09.2012 00:25 6,7 C 19,9 C 8,1 C 6,7 C 6,6 C 0,0 C 88 % 90 % 0 % 1018,8 hPa 0,0 l/m 0,0 km/h (0 Bft) O-NO 67 0 min 0,0 UV-I 4,9 C 6,6 C 0,0 km/h (0 Bft)
29.09.2012 00:30 6,5 C 19,9 C 8,1 C 6,4 C 6,3 C 0,0 C 88 % 90 % 0 % 1018,8 hPa 0,0 l/m 0,0 km/h (0 Bft) O-NO 67 0 min 0,0 UV-I 4,7 C 6,3 C 0,0 km/h (0 Bft)
29.09.2012 00:35 6,4 C 19,8 C 8,0 C 6,4 C 6,3 C 0,0 C 88 % 90 % 0 % 1018,8 hPa 0,0 l/m 0,0 km/h (0 Bft) O-NO 67 0 min 0,0 UV-I 4,6 C 6,3 C 0,0 km/h (0 Bft)
29.09.2012 00:41 6,3 C 19,8 C 7,9 C 6,2 C 6,1 C 0,0 C 88 % 90 % 0 % 1018,9 hPa 0,0 l/m 0,0 km/h (0 Bft) N 0 0 min 0,0 UV-I 4,5 C 6,1 C 0,0 km/h (0 Bft)
29.09.2012 00:55 6,1 C 19,7 C 7,7 C 6,1 C 6,0 C 0,0 C 88 % 90 % 0 % 1018,9 hPa 0,0 l/m 0,0 km/h (0 Bft) W 270 0 min 0,0 UV-I 4,3 C 6,0 C 0,0 km/h (0 Bft)
29.09.2012 01:00 6,0 C 19,8 C 7,5 C 5,9 C 5,7 C 0,0 C 88 % 90 % 0 % 1018,5 hPa 0,0 l/m 0,0 km/h (0 Bft) NW 315 0 min 0,0 UV-I 4,2 C 5,7 C 0,0 km/h (0 Bft)
29.09.2012 01:03 6,0 C 19,8 C 7,5 C 5,9 C 5,7 C 0,0 C 88 % 90 % 0 % 1018,5 hPa 0,0 l/m 0,0 km/h (0 Bft) NW 315 0 min 0,0 UV-I 4,2 C 5,7 C 0,0 km/h (0 Bft)
29.09.2012 01:05 6,0 C 19,8 C 7,5 C 5,9 C 5,7 C 0,0 C 88 % 90 % 0 % 1018,5 hPa 0,0 l/m 0,0 km/h (0 Bft) NW 315 0 min 0,0 UV-I 4,2 C 5,7 C 0,0 km/h (0 Bft)
29.09.2012 01:10 5,9 C 19,7 C 7,5 C 5,8 C 5,6 C 0,0 C 88 % 90 % 0 % 1018,5 hPa 0,0 l/m 0,0 km/h (0 Bft) W 270 0 min 0,0 UV-I 4,1 C 5,6 C 0,0 km/h (0 Bft)
29.09.2012 01:15 5,9 C 19,7 C 7,4 C 5,8 C 5,6 C 0,0 C 88 % 90 % 0 % 1018,5 hPa 0,0 l/m 0,0 km/h (0 Bft) W 270 0 min 0,0 UV-I 4,1 C 5,6 C 0,0 km/h (0 Bft)
29.09.2012 01:20 5,8 C 19,8 C 7,5 C 5,7 C 5,6 C 0,0 C 88 % 91 % 0 % 1018,5 hPa 0,0 l/m 0,0 km/h (0 Bft) NO 45 0 min 0,0 UV-I 4,0 C 5,6 C 0,0 km/h (0 Bft)
29.09.2012 01:25 5,9 C 19,7 C 7,4 C 5,8 C 5,7 C 0,0 C 88 % 91 % 0 % 1018,9 hPa 0,0 l/m 0,0 km/h (0 Bft) NO 45 0 min 0,0 UV-I 4,1 C 5,7 C 0,0 km/h (0 Bft)
29.09.2012 01:30 5,8 C 19,7 C 7,4 C 5,8 C 5,7 C 0,0 C 88 % 91 % 0 % 1018,9 hPa 0,0 l/m 0,0 km/h (0 Bft) NO 45 0 min 0,0 UV-I 4,0 C 5,7 C 0,0 km/h (0 Bft)
29.09.2012 01:35 5,7 C 19,7 C 7,3 C 5,7 C 5,6 C 0,0 C 88 % 91 % 0 % 1018,9 hPa 0,0 l/m 0,0 km/h (0 Bft) N-NO 22 0 min 0,0 UV-I 3,9 C 5,6 C 0,0 km/h (0 Bft)
29.09.2012 01:40 5,6 C 19,7 C 7,2 C 5,5 C 5,4 C 0,0 C 88 % 90 % 0 % 1018,9 hPa 0,0 l/m 0,0 km/h (0 Bft) NW 315 0 min 0,0 UV-I 3,8 C 5,4 C 0,0 km/h (0 Bft)
29.09.2012 01:45 5,6 C 19,6 C 7,3 C 5,6 C 5,5 C 0,0 C 88 % 91 % 0 % 1018,8 hPa 0,0 l/m 0,0 km/h (0 Bft) W 270 0 min 0,0 UV-I 3,8 C 5,5 C 0,0 km/h (0 Bft)
29.09.2012 01:50 5,5 C 19,6 C 7,3 C 5,6 C 5,6 C 0,1 C 88 % 91 % 0 % 1018,8 hPa 0,0 l/m 0,0 km/h (0 Bft) W-SW 247 0 min 0,0 UV-I 3,7 C 5,6 C 0,0 km/h (0 Bft)
29.09.2012 01:55 5,5 C 19,6 C 7,2 C 5,6 C 5,6 C 0,1 C 89 % 90 % 0 % 1018,8 hPa 0,0 l/m 0,0 km/h (0 Bft) W-SW 247 0 min 0,0 UV-I 3,8 C 5,6 C 0,0 km/h (0 Bft)
29.09.2012 02:00 5,5 C 19,6 C 7,2 C 5,6 C 5,6 C 0,1 C 89 % 91 % 0 % 1018,8 hPa 0,0 l/m 0,0 km/h (0 Bft) W 270 0 min 0,0 UV-I 3,8 C 5,6 C 0,0 km/h (0 Bft)
29.09.2012 02:05 5,5 C 19,6 C 7,2 C 5,6 C 5,6 C 0,1 C 89 % 91 % 0 % 1018,8 hPa 0,0 l/m 0,0 km/h (0 Bft) W-SW 247 0 min 0,0 UV-I 3,8 C 5,6 C 0,0 km/h (0 Bft)
29.09.2012 02:10 5,4 C 19,6 C 7,2 C 5,5 C 5,5 C 0,1 C 89 % 91 % 0 % 1018,8 hPa 0,0 l/m 0,0 km/h (0 Bft) W 270 0 min 0,0 UV-I 3,7 C 5,5 C 0,0 km/h (0 Bft)
29.09.2012 02:15 5,3 C 19,6 C 7,2 C 5,4 C 5,4 C 0,1 C 89 % 91 % 0 % 1018,8 hPa 0,0 l/m 0,0 km/h (0 Bft) W 270 0 min 0,0 UV-I 3,6 C 5,4 C 0,0 km/h (0 Bft)
29.09.2012 02:20 5,2 C 19,6 C 7,1 C 5,3 C 5,3 C 0,1 C 89 % 91 % 0 % 1018,8 hPa 0,0 l/m 0,0 km/h (0 Bft) SW 225 0 min 0,0 UV-I 3,5 C 5,3 C 0,0 km/h (0 Bft)
29.09.2012 02:25 5,2 C 19,6 C 7,1 C 5,4 C 5,4 C 0,2 C 89 % 91 % 0 % 1018,8 hPa 0,0 l/m 0,0 km/h (0 Bft) SW 225 0 min 0,0 UV-I 3,5 C 5,4 C 0,0 km/h (0 Bft)
29.09.2012 02:30 5,2 C 19,6 C 7,0 C 5,3 C 5,3 C 0,1 C 89 % 91 % 0 % 1018,8 hPa 0,0 l/m 0,0 km/h (0 Bft) W-SW 247 0 min 0,0 UV-I 3,5 C 5,3 C 0,0 km/h (0 Bft)
29.09.2012 02:35 5,1 C 19,6 C 6,9 C 5,2 C 5,2 C 0,1 C 89 % 91 % 0 % 1018,8 hPa 0,0 l/m 0,0 km/h (0 Bft) W 270 0 min 0,0 UV-I 3,4 C 5,2 C 0,0 km/h (0 Bft)
29.09.2012 02:40 5,1 C 19,5 C 7,0 C 5,1 C 5,1 C 0,0 C 89 % 91 % 0 % 1018,8 hPa 0,0 l/m 0,0 km/h (0 Bft) W-SW 247 0 min 0,0 UV-I 3,4 C 5,1 C 0,0 km/h (0 Bft)
29.09.2012 02:45 5,1 C 19,5 C 6,9 C 5,2 C 5,2 C 0,1 C 89 % 91 % 0 % 1018,6 hPa 0,0 l/m 0,0 km/h (0 Bft) SW 225 0 min 0,0 UV-I 3,4 C 5,2 C 0,0 km/h (0 Bft)
29.09.2012 02:50 5,0 C 19,5 C 6,9 C 5,3 C 5,3 C 0,3 C 89 % 91 % 0 % 1018,6 hPa 0,0 l/m 0,0 km/h (0 Bft) SW 225 0 min 0,0 UV-I 3,3 C 5,3 C 0,0 km/h (0 Bft)
29.09.2012 02:55 5,0 C 19,5 C 6,8 C 5,3 C 5,3 C 0,3 C 89 % 91 % 0 % 1018,6 hPa 0,0 l/m 0,0 km/h (0 Bft) W 270 0 min 0,0 UV-I 3,3 C 5,3 C 0,0 km/h (0 Bft)
29.09.2012 03:00 5,1 C 19,5 C 6,8 C 5,2 C 5,2 C 0,1 C 89 % 91 % 0 % 1018,6 hPa 0,0 l/m 0,0 km/h (0 Bft) SW 225 0 min 0,0 UV-I 3,4 C 5,2 C 0,0 km/h (0 Bft)
29.09.2012 03:05 5,1 C 19,5 C 6,9 C 5,3 C 5,3 C 0,2 C 89 % 91 % 0 % 1018,9 hPa 0,0 l/m 0,0 km/h (0 Bft) SW 225 0 min 0,0 UV-I 3,4 C 5,3 C 0,0 km/h (0 Bft)
29.09.2012 03:10 5,1 C 19,5 C 6,9 C 5,2 C 5,2 C 0,1 C 89 % 91 % 0 % 1018,9 hPa 0,0 l/m 0,0 km/h (0 Bft) SW 225 0 min 0,0 UV-I 3,4 C 5,2 C 0,0 km/h (0 Bft)
29.09.2012 03:15 5,1 C 19,5 C 6,8 C 5,1 C 5,1 C 0,0 C 89 % 91 % 0 % 1018,9 hPa 0,0 l/m 0,0 km/h (0 Bft) SW 225 0 min 0,0 UV-I 3,4 C 5,1 C 0,0 km/h (0 Bft)
29.09.2012 03:20 5,1 C 19,4 C 6,7 C 5,1 C 5,1 C 0,0 C 89 % 91 % 0 % 1018,9 hPa 0,0 l/m 0,0 km/h (0 Bft) SW 225 0 min 0,0 UV-I 3,4 C 5,1 C 0,0 km/h (0 Bft)
29.09.2012 03:25 5,1 C 19,4 C 6,7 C 5,1 C 5,1 C 0,0 C 90 % 91 % 0 % 1018,8 hPa 0,0 l/m 0,0 km/h (0 Bft) W-SW 247 0 min 0,0 UV-I 3,6 C 5,1 C 0,0 km/h (0 Bft)
29.09.2012 03:30 5,1 C 19,4 C 6,7 C 5,1 C 5,1 C 0,0 C 89 % 91 % 0 % 1018,8 hPa 0,0 l/m 0,0 km/h (0 Bft) W 270 0 min 0,0 UV-I 3,4 C 5,1 C 0,0 km/h (0 Bft)
29.09.2012 03:35 5,0 C 19,4 C 6,6 C 5,1 C 5,1 C 0,1 C 89 % 91 % 0 % 1018,8 hPa 0,0 l/m 0,0 km/h (0 Bft) W 270 0 min 0,0 UV-I 3,3 C 5,1 C 0,0 km/h (0 Bft)
29.09.2012 03:40 4,9 C 19,4 C 6,7 C 5,0 C 5,0 C 0,1 C 89 % 91 % 0 % 1018,8 hPa 0,0 l/m 0,0 km/h (0 Bft) W 270 0 min 0,0 UV-I 3,2 C 5,0 C 0,0 km/h (0 Bft)
29.09.2012 03:45 4,9 C 19,4 C 6,7 C 5,0 C 5,0 C 0,1 C 89 % 92 % 0 % 1018,8 hPa 0,0 l/m 0,0 km/h (0 Bft) W-SW 247 0 min 0,0 UV-I 3,2 C 5,0 C 0,0 km/h (0 Bft)
29.09.2012 03:50 4,9 C 19,4 C 6,6 C 4,9 C 4,9 C 0,0 C 89 % 91 % 0 % 1018,8 hPa 0,0 l/m 0,0 km/h (0 Bft) W-SW 247 0 min 0,0 UV-I 3,2 C 4,9 C 0,0 km/h (0 Bft)
29.09.2012 03:55 4,9 C 19,4 C 6,6 C 4,9 C 4,9 C 0,0 C 89 % 91 % 0 % 1018,8 hPa 0,0 l/m 0,0 km/h (0 Bft) W-NW 292 0 min 0,0 UV-I 3,2 C 4,9 C 0,0 km/h (0 Bft)
29.09.2012 04:00 4,7 C 19,3 C 6,4 C 4,7 C 4,7 C 0,0 C 89 % 91 % 0 % 1018,8 hPa 0,0 l/m 0,0 km/h (0 Bft) W 270 0 min 0,0 UV-I 3,0 C 4,7 C 0,0 km/h (0 Bft)
29.09.2012 04:05 4,7 C 19,3 C 6,5 C 4,7 C 4,7 C 0,0 C 89 % 91 % 0 % 1018,9 hPa 0,0 l/m 0,0 km/h (0 Bft) W-NW 292 0 min 0,0 UV-I 3,0 C 4,7 C 0,0 km/h (0 Bft)
29.09.2012 04:10 4,8 C 19,3 C 6,5 C 4,9 C 4,9 C 0,1 C 90 % 92 % 0 % 1018,9 hPa 0,0 l/m 0,0 km/h (0 Bft) W-NW 292 0 min 0,0 UV-I 3,3 C 4,9 C 0,0 km/h (0 Bft)
29.09.2012 04:15 4,8 C 19,3 C 6,5 C 4,8 C 4,8 C 0,0 C 90 % 92 % 0 % 1018,9 hPa 0,0 l/m 0,0 km/h (0 Bft) W 270 0 min 0,0 UV-I 3,3 C 4,8 C 0,0 km/h (0 Bft)
29.09.2012 04:20 4,8 C 19,3 C 6,5 C 4,8 C 4,8 C 0,0 C 90 % 92 % 0 % 1018,9 hPa 0,0 l/m 0,0 km/h (0 Bft) W-NW 292 0 min 0,0 UV-I 3,3 C 4,8 C 0,0 km/h (0 Bft)
29.09.2012 04:25 4,7 C 19,4 C 6,4 C 4,7 C 4,7 C 0,0 C 90 % 92 % 0 % 1018,7 hPa 0,0 l/m 0,0 km/h (0 Bft) W 270 0 min 0,0 UV-I 3,2 C 4,7 C 0,0 km/h (0 Bft)
29.09.2012 04:30 4,6 C 19,3 C 6,3 C 4,6 C 4,5 C 0,0 C 90 % 91 % 0 % 1018,7 hPa 0,0 l/m 0,0 km/h (0 Bft) W-SW 247 0 min 0,0 UV-I 3,1 C 4,5 C 0,0 km/h (0 Bft)
29.09.2012 04:35 4,6 C 19,3 C 6,3 C 4,6 C 4,5 C 0,0 C 90 % 92 % 0 % 1018,7 hPa 0,0 l/m 0,0 km/h (0 Bft) W 270 0 min 0,0 UV-I 3,1 C 4,5 C 0,0 km/h (0 Bft)
29.09.2012 04:40 4,4 C 19,3 C 6,2 C 4,4 C 4,4 C 0,0 C 89 % 91 % 0 % 1018,7 hPa 0,0 l/m 0,0 km/h (0 Bft) W 270 0 min 0,0 UV-I 2,7 C 4,4 C 0,0 km/h (0 Bft)
29.09.2012 04:45 4,4 C 19,3 C 6,1 C 4,4 C 4,4 C 0,0 C 90 % 91 % 0 % 1018,8 hPa 0,0 l/m 0,0 km/h (0 Bft) W 270 0 min 0,0 UV-I 2,9 C 4,4 C 0,0 km/h (0 Bft)
29.09.2012 04:50 4,5 C 19,3 C 6,2 C 4,5 C 4,4 C 0,0 C 90 % 92 % 0 % 1018,8 hPa 0,0 l/m 0,0 km/h (0 Bft) NW 315 0 min 0,0 UV-I 3,0 C 4,4 C 0,0 km/h (0 Bft)
29.09.2012 04:55 4,5 C 19,3 C 6,3 C 4,5 C 4,5 C 0,0 C 90 % 92 % 0 % 1018,8 hPa 0,0 l/m 0,0 km/h (0 Bft) N-NO 22 0 min 0,0 UV-I 3,0 C 4,5 C 0,0 km/h (0 Bft)
29.09.2012 05:00 4,5 C 19,3 C 6,2 C 4,6 C 4,6 C 0,1 C 90 % 92 % 0 % 1018,8 hPa 0,0 l/m 0,0 km/h (0 Bft) N-NO 22 0 min 0,0 UV-I 3,0 C 4,6 C 0,0 km/h (0 Bft)
29.09.2012 05:05 4,5 C 19,3 C 6,1 C 4,6 C 4,6 C 0,1 C 90 % 92 % 0 % 1018,7 hPa 0,0 l/m 0,0 km/h (0 Bft) N-NO 22 0 min 0,0 UV-I 3,0 C 4,6 C 0,0 km/h (0 Bft)
29.09.2012 05:10 4,5 C 19,3 C 6,0 C 4,7 C 4,7 C 0,2 C 90 % 92 % 0 % 1018,7 hPa 0,0 l/m 0,0 km/h (0 Bft) NW 315 0 min 0,0 UV-I 3,0 C 4,7 C 0,0 km/h (0 Bft)
29.09.2012 05:15 4,5 C 19,2 C 6,0 C 4,5 C 4,5 C 0,0 C 90 % 92 % 0 % 1018,7 hPa 0,0 l/m 0,0 km/h (0 Bft) NW 315 0 min 0,0 UV-I 3,0 C 4,5 C 0,0 km/h (0 Bft)
29.09.2012 05:20 4,4 C 19,2 C 6,1 C 4,5 C 4,5 C 0,1 C 90 % 92 % 0 % 1018,7 hPa 0,0 l/m 0,0 km/h (0 Bft) W-NW 292 0 min 0,0 UV-I 2,9 C 4,5 C 0,0 km/h (0 Bft)
29.09.2012 05:25 4,4 C 19,2 C 6,0 C 4,4 C 4,4 C 0,0 C 90 % 92 % 0 % 1018,3 hPa 0,0 l/m 0,0 km/h (0 Bft) W-NW 292 0 min 0,0 UV-I 2,9 C 4,4 C 0,0 km/h (0 Bft)
29.09.2012 05:30 4,5 C 19,2 C 6,1 C 4,5 C 4,4 C 0,0 C 90 % 92 % 0 % 1018,3 hPa 0,0 l/m 0,0 km/h (0 Bft) W-NW 292 0 min 0,0 UV-I 3,0 C 4,4 C 0,0 km/h (0 Bft)
29.09.2012 05:35 4,4 C 19,2 C 6,0 C 4,4 C 4,4 C 0,0 C 90 % 92 % 0 % 1018,3 hPa 0,0 l/m 0,0 km/h (0 Bft) N-NO 22 0 min 0,0 UV-I 2,9 C 4,4 C 0,0 km/h (0 Bft)
29.09.2012 05:40 4,5 C 19,2 C 6,1 C 4,5 C 4,4 C 0,0 C 90 % 92 % 0 % 1018,3 hPa 0,0 l/m 0,0 km/h (0 Bft) N-NO 22 0 min 0,0 UV-I 3,0 C 4,4 C 0,0 km/h (0 Bft)
29.09.2012 05:45 4,4 C 19,2 C 6,0 C 4,5 C 4,5 C 0,1 C 90 % 92 % 0 % 1018,4 hPa 0,0 l/m 0,0 km/h (0 Bft) N-NO 22 0 min 0,0 UV-I 2,9 C 4,5 C 0,0 km/h (0 Bft)
29.09.2012 05:50 4,5 C 19,2 C 6,1 C 4,5 C 4,4 C 0,0 C 90 % 92 % 0 % 1018,4 hPa 0,0 l/m 0,0 km/h (0 Bft) N-NO 22 0 min 0,0 UV-I 3,0 C 4,4 C 0,0 km/h (0 Bft)
29.09.2012 05:55 4,4 C 19,1 C 6,0 C 4,4 C 4,4 C 0,0 C 90 % 92 % 0 % 1018,4 hPa 0,0 l/m 0,0 km/h (0 Bft) N-NO 22 0 min 0,0 UV-I 2,9 C 4,4 C 0,0 km/h (0 Bft)
29.09.2012 06:00 4,4 C 19,1 C 6,1 C 4,6 C 4,6 C 0,2 C 90 % 92 % 0 % 1018,4 hPa 0,0 l/m 0,0 km/h (0 Bft) N-NO 22 0 min 0,0 UV-I 2,9 C 4,6 C 0,0 km/h (0 Bft)
29.09.2012 06:06 4,5 C 19,1 C 6,0 C 4,5 C 4,5 C 0,0 C 90 % 92 % 0 % 1018,6 hPa 0,0 l/m 0,0 km/h (0 Bft) NW 315 0 min 0,0 UV-I 3,0 C 4,5 C 0,0 km/h (0 Bft)
29.09.2012 06:10 4,5 C 19,1 C 6,0 C 4,5 C 4,5 C 0,0 C 90 % 92 % 0 % 1018,6 hPa 0,0 l/m 0,0 km/h (0 Bft) NW 315 0 min 0,0 UV-I 3,0 C 4,5 C 0,0 km/h (0 Bft)
29.09.2012 06:17 4,3 C 18,9 C 5,8 C 4,3 C 4,2 C 0,0 C 90 % 91 % 0 % 1018,6 hPa 0,0 l/m 0,0 km/h (0 Bft) W-SW 247 0 min 0,0 UV-I 2,8 C 4,2 C 0,0 km/h (0 Bft)
29.09.2012 06:18 4,3 C 18,9 C 5,8 C 4,3 C 4,2 C 0,0 C 90 % 91 % 0 % 1018,6 hPa 0,0 l/m 0,0 km/h (0 Bft) W-SW 247 0 min 0,0 UV-I 2,8 C 4,2 C 0,0 km/h (0 Bft)
29.09.2012 06:19 4,3 C 18,9 C 5,8 C 4,3 C 4,2 C 0,0 C 90 % 91 % 0 % 1018,6 hPa 0,0 l/m 0,0 km/h (0 Bft) W-SW 247 0 min 0,0 UV-I 2,8 C 4,2 C 0,0 km/h (0 Bft)
29.09.2012 06:20 4,3 C 18,9 C 5,8 C 4,3 C 4,2 C 0,0 C 90 % 91 % 0 % 1018,6 hPa 0,0 l/m 0,0 km/h (0 Bft) W-SW 247 0 min 0,0 UV-I 2,8 C 4,2 C 0,0 km/h (0 Bft)
29.09.2012 06:21 4,1 C 18,9 C 5,7 C 4,1 C 4,1 C 0,0 C 90 % 91 % 0 % 1018,8 hPa 0,0 l/m 0,0 km/h (0 Bft) W-SW 247 0 min 0,0 UV-I 2,6 C 4,1 C 0,0 km/h (0 Bft)
29.09.2012 06:23 4,1 C 18,9 C 5,7 C 4,1 C 4,1 C 0,0 C 90 % 91 % 0 % 1018,8 hPa 0,0 l/m 0,0 km/h (0 Bft) W-SW 247 0 min 0,0 UV-I 2,6 C 4,1 C 0,0 km/h (0 Bft)
29.09.2012 06:34 4,1 C 18,9 C 5,7 C 4,1 C 4,0 C 0,0 C 90 % 91 % 0 % 1018,8 hPa 0,0 l/m 0,0 km/h (0 Bft) W 270 0 min 0,0 UV-I 2,6 C 4,0 C 0,0 km/h (0 Bft)
29.09.2012 06:35 4,1 C 18,9 C 5,7 C 4,1 C 4,0 C 0,0 C 90 % 91 % 0 % 1018,8 hPa 0,0 l/m 0,0 km/h (0 Bft) W 270 0 min 0,0 UV-I 2,6 C 4,0 C 0,0 km/h (0 Bft)
29.09.2012 06:36 4,1 C 18,9 C 5,9 C 4,1 C 4,1 C 0,0 C 90 % 92 % 0 % 1018,8 hPa 0,0 l/m 0,0 km/h (0 Bft) W-SW 247 0 min 0,0 UV-I 2,6 C 4,1 C 0,0 km/h (0 Bft)
29.09.2012 06:37 4,1 C 18,9 C 5,9 C 4,1 C 4,1 C 0,0 C 90 % 92 % 0 % 1018,8 hPa 0,0 l/m 0,0 km/h (0 Bft) W-SW 247 0 min 0,0 UV-I 2,6 C 4,1 C 0,0 km/h (0 Bft)
29.09.2012 06:38 4,1 C 18,9 C 5,9 C 4,1 C 4,1 C 0,0 C 90 % 92 % 0 % 1018,8 hPa 0,0 l/m 0,0 km/h (0 Bft) W-SW 247 0 min 0,0 UV-I 2,6 C 4,1 C 0,0 km/h (0 Bft)
29.09.2012 06:40 4,0 C 18,9 C 5,9 C 4,1 C 4,1 C 0,1 C 90 % 92 % 0 % 1018,7 hPa 0,0 l/m 0,0 km/h (0 Bft) W-SW 247 0 min 0,0 UV-I 2,5 C 4,1 C 0,0 km/h (0 Bft)
29.09.2012 06:45 4,0 C 18,9 C 5,8 C 4,1 C 4,1 C 0,1 C 90 % 91 % 0 % 1018,7 hPa 0,0 l/m 0,0 km/h (0 Bft) W 270 0 min 0,0 UV-I 2,5 C 4,1 C 0,0 km/h (0 Bft)
29.09.2012 06:50 3,9 C 18,9 C 5,9 C 4,2 C 4,2 C 0,3 C 90 % 92 % 0 % 1018,7 hPa 0,0 l/m 0,0 km/h (0 Bft) W 270 0 min 0,0 UV-I 2,4 C 4,2 C 0,0 km/h (0 Bft)
29.09.2012 06:55 3,9 C 18,9 C 5,9 C 4,4 C 4,4 C 0,5 C 90 % 92 % 0 % 1018,7 hPa 0,0 l/m 0,0 km/h (0 Bft) W-SW 247 0 min 0,0 UV-I 2,4 C 4,4 C 0,0 km/h (0 Bft)
29.09.2012 07:00 4,0 C 18,9 C 5,9 C 4,5 C 4,5 C 0,5 C 90 % 92 % 0 % 1018,8 hPa 0,0 l/m 0,0 km/h (0 Bft) S-SW 202 0 min 0,0 UV-I 2,5 C 4,5 C 0,0 km/h (0 Bft)
29.09.2012 07:05 4,2 C 18,9 C 6,1 C 4,8 C 4,8 C 0,6 C 91 % 92 % 0 % 1018,8 hPa 0,0 l/m 0,0 km/h (0 Bft) S-SW 202 0 min 0,0 UV-I 2,9 C 4,8 C 0,0 km/h (0 Bft)
29.09.2012 07:10 4,3 C 18,9 C 6,0 C 5,1 C 5,1 C 0,8 C 91 % 92 % 0 % 1018,8 hPa 0,0 l/m 0,0 km/h (0 Bft) S-SW 202 0 min 0,0 UV-I 3,0 C 5,1 C 0,0 km/h (0 Bft)
29.09.2012 07:15 4,4 C 18,9 C 6,3 C 5,2 C 5,2 C 0,8 C 91 % 92 % 0 % 1018,8 hPa 0,0 l/m 0,0 km/h (0 Bft) S-SW 202 0 min 0,0 UV-I 3,1 C 5,2 C 0,0 km/h (0 Bft)
29.09.2012 07:20 4,5 C 18,9 C 6,2 C 5,3 C 5,3 C 0,8 C 91 % 92 % 21 % 1018,8 hPa 0,0 l/m 0,0 km/h (0 Bft) S-SW 202 5 min 0,0 UV-I 3,2 C 5,3 C 0,0 km/h (0 Bft)
29.09.2012 07:25 4,7 C 18,8 C 6,3 C 5,2 C 5,2 C 0,5 C 91 % 92 % 13 % 1018,8 hPa 0,0 l/m 0,0 km/h (0 Bft) W-SW 247 5 min 0,0 UV-I 3,4 C 5,2 C 0,0 km/h (0 Bft)
29.09.2012 07:30 4,5 C 18,8 C 6,3 C 5,1 C 5,1 C 0,6 C 91 % 92 % 16 % 1018,8 hPa 0,0 l/m 0,0 km/h (0 Bft) W 270 5 min 0,0 UV-I 3,2 C 5,1 C 0,0 km/h (0 Bft)
29.09.2012 07:35 4,5 C 18,8 C 6,3 C 5,2 C 5,2 C 0,7 C 91 % 92 % 18 % 1018,8 hPa 0,0 l/m 0,0 km/h (0 Bft) W-SW 247 5 min 0,0 UV-I 3,2 C 5,2 C 0,0 km/h (0 Bft)
29.09.2012 07:40 4,5 C 18,8 C 6,3 C 5,2 C 5,2 C 0,7 C 91 % 92 % 18 % 1019,0 hPa 0,0 l/m 0,0 km/h (0 Bft) W-SW 247 0 min 0,0 UV-I 3,2 C 5,2 C 0,0 km/h (0 Bft)
29.09.2012 07:45 4,7 C 18,8 C 6,3 C 5,5 C 5,5 C 0,8 C 91 % 92 % 21 % 1019,0 hPa 0,0 l/m 0,0 km/h (0 Bft) W 270 0 min 0,0 UV-I 3,4 C 5,5 C 0,0 km/h (0 Bft)
29.09.2012 07:50 4,7 C 18,8 C 6,5 C 5,7 C 5,7 C 1,0 C 91 % 92 % 26 % 1019,0 hPa 0,0 l/m 0,0 km/h (0 Bft) S-SW 202 0 min 0,0 UV-I 3,4 C 5,7 C 0,0 km/h (0 Bft)
29.09.2012 07:55 4,8 C 18,8 C 6,5 C 5,9 C 5,9 C 1,1 C 91 % 92 % 29 % 1019,0 hPa 0,0 l/m 0,0 km/h (0 Bft) S-SW 202 0 min 0,0 UV-I 3,5 C 5,9 C 0,0 km/h (0 Bft)
29.09.2012 08:00 4,9 C 18,8 C 6,6 C 6,1 C 6,1 C 1,2 C 91 % 92 % 32 % 1019,2 hPa 0,0 l/m 0,0 km/h (0 Bft) S-SW 202 0 min 0,0 UV-I 3,6 C 6,1 C 0,0 km/h (0 Bft)
29.09.2012 08:05 5,1 C 18,8 C 6,9 C 6,4 C 6,4 C 1,3 C 91 % 92 % 34 % 1019,2 hPa 0,0 l/m 0,0 km/h (0 Bft) S-SW 202 0 min 0,0 UV-I 3,8 C 6,4 C 0,0 km/h (0 Bft)
29.09.2012 08:10 5,1 C 18,7 C 6,8 C 6,5 C 6,5 C 1,4 C 91 % 92 % 37 % 1019,2 hPa 0,0 l/m 0,0 km/h (0 Bft) W-SW 247 0 min 0,0 UV-I 3,8 C 6,5 C 0,0 km/h (0 Bft)
29.09.2012 08:15 5,2 C 18,7 C 7,1 C 6,6 C 6,6 C 1,4 C 91 % 93 % 37 % 1019,2 hPa 0,0 l/m 0,0 km/h (0 Bft) W-SW 247 0 min 0,0 UV-I 3,9 C 6,6 C 0,0 km/h (0 Bft)
29.09.2012 08:20 5,3 C 18,7 C 7,1 C 6,7 C 6,7 C 1,4 C 91 % 93 % 37 % 1017,9 hPa 0,0 l/m 0,0 km/h (0 Bft) W-SW 247 0 min 0,0 UV-I 4,0 C 6,7 C 0,0 km/h (0 Bft)
29.09.2012 08:25 5,5 C 18,7 C 7,3 C 6,9 C 6,9 C 1,4 C 92 % 93 % 37 % 1017,9 hPa 0,0 l/m 0,0 km/h (0 Bft) W-SW 247 0 min 0,0 UV-I 4,3 C 6,9 C 0,0 km/h (0 Bft)
29.09.2012 08:30 5,5 C 18,7 C 7,2 C 7,0 C 7,0 C 1,5 C 92 % 93 % 39 % 1017,9 hPa 0,0 l/m 0,0 km/h (0 Bft) W-SW 247 0 min 0,0 UV-I 4,3 C 7,0 C 0,0 km/h (0 Bft)
29.09.2012 08:35 5,7 C 18,7 C 7,4 C 7,2 C 7,2 C 1,5 C 92 % 93 % 39 % 1017,9 hPa 0,0 l/m 0,0 km/h (0 Bft) W-SW 247 0 min 0,0 UV-I 4,5 C 7,2 C 0,0 km/h (0 Bft)
29.09.2012 08:40 5,7 C 18,6 C 7,5 C 7,3 C 7,3 C 1,6 C 92 % 93 % 42 % 1018,4 hPa 0,0 l/m 0,0 km/h (0 Bft) SW 225 0 min 0,0 UV-I 4,5 C 7,3 C 0,0 km/h (0 Bft)
29.09.2012 08:45 5,9 C 18,7 C 7,6 C 7,5 C 7,5 C 1,6 C 92 % 92 % 42 % 1018,4 hPa 0,0 l/m 0,0 km/h (0 Bft) S-SW 202 0 min 0,0 UV-I 4,7 C 7,5 C 0,0 km/h (0 Bft)
29.09.2012 08:49 5,9 C 18,7 C 7,6 C 7,5 C 7,5 C 1,6 C 92 % 92 % 42 % 1018,4 hPa 0,0 l/m 0,0 km/h (0 Bft) S-SW 202 0 min 0,0 UV-I 4,7 C 7,5 C 0,0 km/h (0 Bft)
29.09.2012 08:55 6,0 C 18,7 C 7,7 C 7,5 C 7,5 C 1,5 C 92 % 92 % 39 % 1018,4 hPa 0,0 l/m 0,0 km/h (0 Bft) W 270 0 min 0,0 UV-I 4,8 C 7,5 C 0,0 km/h (0 Bft)
29.09.2012 09:00 6,0 C 18,6 C 7,8 C 7,6 C 7,6 C 1,6 C 92 % 92 % 42 % 1018,4 hPa 0,0 l/m 0,0 km/h (0 Bft) W 270 0 min 0,0 UV-I 4,8 C 7,6 C 0,0 km/h (0 Bft)
29.09.2012 09:06 6,3 C 18,7 C 8,0 C 7,8 C 7,8 C 1,5 C 92 % 92 % 39 % 1018,2 hPa 0,0 l/m 0,0 km/h (0 Bft) SW 225 0 min 0,0 UV-I 5,1 C 7,8 C 0,0 km/h (0 Bft)
29.09.2012 09:10 6,3 C 18,7 C 8,0 C 7,8 C 7,8 C 1,5 C 92 % 92 % 39 % 1018,2 hPa 0,0 l/m 0,0 km/h (0 Bft) SW 225 0 min 0,0 UV-I 5,1 C 7,8 C 0,0 km/h (0 Bft)
29.09.2012 09:17 6,4 C 18,6 C 8,1 C 8,0 C 8,0 C 1,6 C 92 % 92 % 42 % 1018,2 hPa 0,0 l/m 0,0 km/h (0 Bft) W-SW 247 0 min 0,0 UV-I 5,2 C 8,0 C 0,0 km/h (0 Bft)
29.09.2012 09:18 6,4 C 18,6 C 8,1 C 8,0 C 8,0 C 1,6 C 92 % 92 % 42 % 1018,2 hPa 0,0 l/m 0,0 km/h (0 Bft) W-SW 247 0 min 0,0 UV-I 5,2 C 8,0 C 0,0 km/h (0 Bft)
29.09.2012 09:19 6,4 C 18,6 C 8,1 C 8,0 C 8,0 C 1,6 C 92 % 92 % 42 % 1018,2 hPa 0,0 l/m 0,0 km/h (0 Bft) W-SW 247 0 min 0,0 UV-I 5,2 C 8,0 C 0,0 km/h (0 Bft)
29.09.2012 09:20 6,4 C 18,6 C 8,1 C 8,0 C 8,0 C 1,6 C 92 % 92 % 42 % 1018,2 hPa 0,0 l/m 0,0 km/h (0 Bft) W-SW 247 0 min 0,0 UV-I 5,2 C 8,0 C 0,0 km/h (0 Bft)
29.09.2012 09:21 6,5 C 18,6 C 8,3 C 8,0 C 8,0 C 1,5 C 92 % 92 % 39 % 1018,2 hPa 0,0 l/m 0,0 km/h (0 Bft) W 270 0 min 0,0 UV-I 5,3 C 8,0 C 0,0 km/h (0 Bft)
29.09.2012 09:23 6,5 C 18,6 C 8,3 C 8,0 C 8,0 C 1,5 C 92 % 92 % 39 % 1018,2 hPa 0,0 l/m 0,0 km/h (0 Bft) W 270 0 min 0,0 UV-I 5,3 C 8,0 C 0,0 km/h (0 Bft)
29.09.2012 09:34 6,7 C 18,6 C 8,4 C 8,3 C 8,3 C 1,6 C 92 % 92 % 42 % 1018,2 hPa 0,0 l/m 0,0 km/h (0 Bft) W-SW 247 0 min 0,1 UV-I 5,5 C 8,3 C 0,0 km/h (0 Bft)
29.09.2012 09:35 6,7 C 18,6 C 8,4 C 8,3 C 8,3 C 1,6 C 92 % 92 % 42 % 1018,2 hPa 0,0 l/m 0,0 km/h (0 Bft) W-SW 247 0 min 0,1 UV-I 5,5 C 8,3 C 0,0 km/h (0 Bft)
29.09.2012 09:36 6,8 C 18,6 C 8,7 C 8,6 C 8,6 C 1,8 C 92 % 92 % 47 % 1018,2 hPa 0,0 l/m 0,0 km/h (0 Bft) W-SW 247 0 min 0,1 UV-I 5,6 C 8,6 C 0,0 km/h (0 Bft)
29.09.2012 09:37 6,8 C 18,6 C 8,7 C 8,6 C 8,6 C 1,8 C 92 % 92 % 47 % 1018,2 hPa 0,0 l/m 0,0 km/h (0 Bft) W-SW 247 0 min 0,1 UV-I 5,6 C 8,6 C 0,0 km/h (0 Bft)
29.09.2012 09:38 6,8 C 18,6 C 8,7 C 8,6 C 8,6 C 1,8 C 92 % 92 % 47 % 1018,2 hPa 0,0 l/m 0,0 km/h (0 Bft) W-SW 247 0 min 0,1 UV-I 5,6 C 8,6 C 0,0 km/h (0 Bft)
29.09.2012 09:40 6,9 C 18,5 C 8,7 C 8,8 C 8,8 C 1,9 C 92 % 92 % 50 % 1018,2 hPa 0,0 l/m 0,0 km/h (0 Bft) W-SW 247 0 min 0,1 UV-I 5,7 C 8,8 C 0,0 km/h (0 Bft)
29.09.2012 09:45 7,1 C 18,5 C 8,8 C 9,2 C 9,2 C 2,1 C 92 % 92 % 55 % 1018,2 hPa 0,0 l/m 0,2 km/h (0 Bft) W-SW 247 0 min 0,2 UV-I 5,9 C 9,2 C 1,9 km/h (1 Bft)
29.09.2012 09:50 7,3 C 18,5 C 9,1 C 9,4 C 9,4 C 2,1 C 92 % 92 % 55 % 1018,2 hPa 0,0 l/m 0,2 km/h (0 Bft) S 180 0 min 0,2 UV-I 6,1 C 9,4 C 0,0 km/h (0 Bft)
29.09.2012 09:55 7,5 C 18,5 C 9,2 C 9,7 C 9,7 C 2,2 C 92 % 92 % 58 % 1018,2 hPa 0,0 l/m 0,3 km/h (0 Bft) W-SW 247 0 min 0,2 UV-I 6,3 C 9,7 C 1,6 km/h (1 Bft)
29.09.2012 10:00 7,6 C 18,5 C 9,3 C 10,0 C 10,0 C 2,4 C 92 % 92 % 63 % 1018,4 hPa 0,0 l/m 0,3 km/h (0 Bft) W 270 0 min 0,2 UV-I 6,4 C 10,0 C 0,0 km/h (0 Bft)
29.09.2012 10:05 7,9 C 18,4 C 9,5 C 10,7 C 10,7 C 2,8 C 93 % 92 % 74 % 1018,4 hPa 0,0 l/m 0,3 km/h (0 Bft) O-NO 67 0 min 0,3 UV-I 6,8 C 10,7 C 0,0 km/h (0 Bft)
29.09.2012 10:10 8,0 C 18,4 C 9,7 C 11,1 C 11,1 C 3,1 C 93 % 93 % 82 % 1018,4 hPa 0,0 l/m 0,0 km/h (0 Bft) SW 225 0 min 0,3 UV-I 6,9 C 11,1 C 0,0 km/h (0 Bft)
29.09.2012 10:15 8,3 C 18,2 C 10,2 C 11,5 C 11,5 C 3,2 C 92 % 93 % 84 % 1018,4 hPa 0,0 l/m 0,0 km/h (0 Bft) SW 225 0 min 0,3 UV-I 7,1 C 11,5 C 0,0 km/h (0 Bft)
29.09.2012 10:20 8,4 C 18,3 C 10,3 C 11,7 C 11,7 C 3,3 C 93 % 93 % 87 % 1017,9 hPa 0,0 l/m 0,0 km/h (0 Bft) SW 225 5 min 0,3 UV-I 7,3 C 11,7 C 0,0 km/h (0 Bft)
29.09.2012 10:25 8,7 C 18,3 C 10,7 C 11,9 C 11,9 C 3,2 C 93 % 93 % 84 % 1017,9 hPa 0,0 l/m 0,0 km/h (0 Bft) W-SW 247 0 min 0,3 UV-I 7,6 C 11,9 C 0,0 km/h (0 Bft)
29.09.2012 10:30 8,9 C 18,3 C 10,8 C 12,3 C 12,3 C 3,4 C 93 % 93 % 89 % 1017,9 hPa 0,0 l/m 0,2 km/h (0 Bft) SW 225 5 min 0,4 UV-I 7,8 C 12,3 C 2,3 km/h (1 Bft)
29.09.2012 10:35 9,4 C 18,2 C 11,1 C 12,8 C 12,8 C 3,4 C 93 % 93 % 89 % 1017,9 hPa 0,0 l/m 1,1 km/h (1 Bft) SO 135 5 min 0,4 UV-I 8,3 C 12,8 C 4,5 km/h (1 Bft)
29.09.2012 10:40 9,6 C 18,2 C 11,2 C 13,1 C 13,1 C 3,5 C 93 % 93 % 92 % 1017,6 hPa 0,0 l/m 1,6 km/h (1 Bft) N-NO 22 5 min 0,4 UV-I 8,5 C 13,1 C 2,1 km/h (1 Bft)
29.09.2012 10:47 9,8 C 18,1 C 11,5 C 13,5 C 13,5 C 3,7 C 93 % 92 % 97 % 1017,6 hPa 0,0 l/m 1,6 km/h (1 Bft) S 180 7 min 0,5 UV-I 8,7 C 13,5 C 2,4 km/h (1 Bft)
29.09.2012 10:50 9,8 C 18,1 C 11,5 C 13,5 C 13,5 C 3,7 C 93 % 92 % 97 % 1017,6 hPa 0,0 l/m 1,6 km/h (1 Bft) S 180 3 min 0,5 UV-I 8,7 C 13,5 C 2,4 km/h (1 Bft)
29.09.2012 10:55 10,0 C 18,1 C 11,7 C 13,8 C 13,8 C 3,8 C 93 % 92 % 100 % 1017,6 hPa 0,0 l/m 1,1 km/h (1 Bft) W-SW 247 5 min 0,5 UV-I 8,9 C 13,8 C 0,0 km/h (0 Bft)
29.09.2012 11:00 10,4 C 18,1 C 11,9 C 14,3 C 14,3 C 3,9 C 93 % 92 % 100 % 1017,6 hPa 0,0 l/m 0,6 km/h (0 Bft) W 270 5 min 0,5 UV-I 9,3 C 14,3 C 0,0 km/h (0 Bft)
29.09.2012 11:05 10,6 C 18,1 C 12,2 C 14,5 C 14,5 C 3,9 C 93 % 92 % 100 % 1017,2 hPa 0,0 l/m 0,8 km/h (0 Bft) S-SW 202 5 min 0,6 UV-I 9,5 C 14,5 C 2,4 km/h (1 Bft)
29.09.2012 11:10 11,2 C 18,1 C 12,5 C 15,0 C 15,0 C 3,8 C 93 % 92 % 100 % 1017,2 hPa 0,0 l/m 1,0 km/h (0 Bft) SW 225 5 min 0,6 UV-I 10,1 C 15,0 C 3,1 km/h (1 Bft)
29.09.2012 11:15 11,6 C 18,1 C 12,8 C 15,3 C 15,3 C 3,7 C 92 % 91 % 97 % 1017,2 hPa 0,0 l/m 1,3 km/h (1 Bft) S-SO 157 5 min 0,6 UV-I 10,3 C 15,3 C 3,2 km/h (1 Bft)
29.09.2012 11:20 12,3 C 18,1 C 13,1 C 15,9 C 15,9 C 3,6 C 92 % 91 % 95 % 1017,2 hPa 0,0 l/m 1,4 km/h (1 Bft) W 270 5 min 0,7 UV-I 11,0 C 15,9 C 1,8 km/h (1 Bft)
29.09.2012 11:25 12,6 C 18,1 C 13,5 C 16,3 C 16,3 C 3,7 C 91 % 90 % 97 % 1017,1 hPa 0,0 l/m 1,6 km/h (1 Bft) N-NW 337 5 min 0,7 UV-I 11,2 C 16,3 C 0,0 km/h (0 Bft)
29.09.2012 11:30 13,3 C 18,1 C 13,7 C 16,8 C 16,8 C 3,5 C 89 % 89 % 92 % 1017,1 hPa 0,0 l/m 1,9 km/h (1 Bft) W-SW 247 5 min 0,8 UV-I 11,5 C 16,8 C 9,3 km/h (2 Bft)
29.09.2012 11:35 13,5 C 18,1 C 13,8 C 16,9 C 16,9 C 3,4 C 88 % 88 % 89 % 1017,1 hPa 0,0 l/m 3,4 km/h (1 Bft) S 180 5 min 0,8 UV-I 11,6 C 16,9 C 9,5 km/h (2 Bft)
29.09.2012 11:40 14,2 C 18,1 C 14,1 C 17,3 C 17,3 C 3,1 C 83 % 86 % 82 % 1017,1 hPa 0,0 l/m 5,0 km/h (1 Bft) SO 135 0 min 0,9 UV-I 11,4 C 17,3 C 11,4 km/h (2 Bft)
29.09.2012 11:45 14,7 C 18,1 C 14,3 C 17,4 C 17,4 C 2,7 C 81 % 85 % 71 % 1016,9 hPa 0,0 l/m 5,8 km/h (2 Bft) NO 45 0 min 1,0 UV-I 11,5 C 17,4 C 4,5 km/h (1 Bft)
29.09.2012 11:50 15,2 C 18,1 C 14,4 C 17,4 C 17,4 C 2,2 C 78 % 83 % 58 % 1016,9 hPa 0,0 l/m 6,1 km/h (2 Bft) S-SO 157 0 min 1,0 UV-I 11,4 C 17,4 C 15,9 km/h (3 Bft)
29.09.2012 11:55 15,5 C 18,1 C 14,7 C 17,3 C 17,3 C 1,8 C 76 % 83 % 47 % 1016,9 hPa 0,0 l/m 4,5 km/h (1 Bft) S-SW 202 0 min 1,0 UV-I 11,3 C 17,3 C 2,9 km/h (1 Bft)
29.09.2012 12:00 15,7 C 18,1 C 14,9 C 17,4 C 17,4 C 1,7 C 75 % 82 % 45 % 1016,9 hPa 0,0 l/m 3,7 km/h (1 Bft) SO 135 0 min 1,0 UV-I 11,3 C 17,4 C 3,7 km/h (1 Bft)
29.09.2012 12:05 15,9 C 18,0 C 15,0 C 17,7 C 17,7 C 1,8 C 76 % 82 % 47 % 1016,9 hPa 0,0 l/m 3,1 km/h (1 Bft) S 180 0 min 1,0 UV-I 11,7 C 17,7 C 2,7 km/h (1 Bft)
29.09.2012 12:10 16,3 C 18,1 C 15,5 C 18,7 C 18,7 C 2,4 C 74 % 82 % 63 % 1016,9 hPa 0,0 l/m 2,9 km/h (1 Bft) SW 225 0 min 1,1 UV-I 11,7 C 18,7 C 7,1 km/h (2 Bft)
29.09.2012 12:15 16,7 C 18,1 C 15,5 C 18,7 C 18,7 C 2,0 C 72 % 80 % 53 % 1016,9 hPa 0,0 l/m 3,4 km/h (1 Bft) S-SW 202 0 min 1,2 UV-I 11,6 C 18,7 C 1,9 km/h (1 Bft)
29.09.2012 12:20 16,5 C 18,1 C 15,3 C 18,1 C 18,1 C 1,6 C 72 % 80 % 42 % 1016,9 hPa 0,0 l/m 2,7 km/h (1 Bft) W-SW 247 0 min 1,0 UV-I 11,4 C 18,1 C 2,3 km/h (1 Bft)
29.09.2012 12:25 16,5 C 18,1 C 15,3 C 18,1 C 18,1 C 1,6 C 71 % 80 % 42 % 1016,8 hPa 0,0 l/m 2,3 km/h (1 Bft) SW 225 0 min 1,0 UV-I 11,2 C 18,1 C 5,6 km/h (1 Bft)
29.09.2012 12:30 16,5 C 18,1 C 15,4 C 17,9 C 17,9 C 1,4 C 71 % 80 % 37 % 1016,8 hPa 0,0 l/m 2,7 km/h (1 Bft) W 270 0 min 1,1 UV-I 11,2 C 17,9 C 2,1 km/h (1 Bft)
29.09.2012 12:35 16,6 C 18,1 C 15,5 C 18,6 C 18,6 C 2,0 C 71 % 79 % 53 % 1016,8 hPa 0,0 l/m 2,7 km/h (1 Bft) S 180 0 min 1,5 UV-I 11,3 C 18,6 C 4,8 km/h (1 Bft)
29.09.2012 12:46 16,9 C 18,1 C 15,9 C 19,9 C 19,9 C 3,0 C 70 % 77 % 79 % 1016,9 hPa 0,0 l/m 3,7 km/h (1 Bft) N 0 0 min 1,8 UV-I 11,4 C 19,9 C 5,3 km/h (1 Bft)
29.09.2012 12:55 17,2 C 18,1 C 16,2 C 20,3 C 20,3 C 3,1 C 69 % 77 % 82 % 1016,9 hPa 0,0 l/m 3,7 km/h (1 Bft) W-SW 247 0 min 1,8 UV-I 11,5 C 20,3 C 6,1 km/h (2 Bft)
29.09.2012 13:00 17,5 C 18,2 C 16,6 C 21,9 C 21,9 C 4,4 C 69 % 77 % 100 % 1016,9 hPa 0,0 l/m 4,3 km/h (1 Bft) W-SW 247 5 min 2,2 UV-I 11,7 C 21,9 C 6,3 km/h (2 Bft)
29.09.2012 13:05 17,9 C 18,2 C 16,8 C 22,6 C 22,6 C 4,7 C 68 % 76 % 100 % 1016,4 hPa 0,0 l/m 4,3 km/h (1 Bft) SO 135 5 min 2,5 UV-I 11,9 C 22,6 C 4,0 km/h (1 Bft)
29.09.2012 13:10 18,1 C 18,2 C 16,9 C 23,6 C 23,6 C 5,5 C 67 % 75 % 100 % 1016,4 hPa 0,0 l/m 3,4 km/h (1 Bft) SO 135 5 min 2,5 UV-I 11,9 C 23,6 C 7,1 km/h (2 Bft)
29.09.2012 13:15 18,1 C 18,2 C 16,9 C 23,3 C 23,3 C 5,2 C 66 % 75 % 100 % 1016,4 hPa 0,0 l/m 4,0 km/h (1 Bft) SW 225 5 min 2,5 UV-I 11,6 C 23,3 C 14,2 km/h (3 Bft)
29.09.2012 13:20 17,8 C 18,2 C 16,7 C 21,3 C 21,3 C 3,5 C 66 % 75 % 92 % 1016,4 hPa 0,0 l/m 6,8 km/h (2 Bft) W 270 5 min 1,7 UV-I 11,4 C 21,3 C 5,8 km/h (2 Bft)
29.09.2012 13:25 17,8 C 18,2 C 16,7 C 20,7 C 20,7 C 2,9 C 66 % 75 % 76 % 1015,8 hPa 0,0 l/m 7,7 km/h (2 Bft) SW 225 0 min 1,5 UV-I 11,4 C 20,7 C 7,7 km/h (2 Bft)
29.09.2012 13:30 17,9 C 18,3 C 16,8 C 20,6 C 20,6 C 2,7 C 68 % 76 % 71 % 1015,8 hPa 0,0 l/m 5,6 km/h (1 Bft) SO 135 0 min 1,6 UV-I 11,9 C 20,6 C 3,1 km/h (1 Bft)
29.09.2012 13:35 18,0 C 18,3 C 16,9 C 21,1 C 21,1 C 3,1 C 66 % 76 % 82 % 1015,8 hPa 0,0 l/m 4,3 km/h (1 Bft) W-SW 247 0 min 1,6 UV-I 11,6 C 21,1 C 10,6 km/h (2 Bft)
29.09.2012 13:40 18,0 C 18,3 C 16,8 C 20,5 C 20,5 C 2,5 C 66 % 75 % 66 % 1015,8 hPa 0,0 l/m 6,0 km/h (2 Bft) SW 225 0 min 1,6 UV-I 11,6 C 20,5 C 5,5 km/h (1 Bft)
29.09.2012 13:45 18,0 C 18,3 C 16,9 C 20,4 C 20,4 C 2,4 C 66 % 75 % 63 % 1015,9 hPa 0,0 l/m 7,2 km/h (2 Bft) W-SW 247 0 min 1,6 UV-I 11,6 C 20,4 C 13,0 km/h (3 Bft)
29.09.2012 13:50 18,1 C 18,3 C 16,9 C 20,8 C 20,8 C 2,7 C 66 % 75 % 71 % 1015,9 hPa 0,0 l/m 6,6 km/h (2 Bft) W-SW 247 0 min 1,5 UV-I 11,6 C 20,8 C 6,8 km/h (2 Bft)
29.09.2012 13:55 18,3 C 18,4 C 16,9 C 21,2 C 21,2 C 2,9 C 66 % 76 % 76 % 1015,9 hPa 0,0 l/m 6,4 km/h (2 Bft) W-SW 247 0 min 1,5 UV-I 11,8 C 21,2 C 5,0 km/h (1 Bft)
29.09.2012 14:00 18,2 C 18,4 C 16,8 C 20,7 C 20,7 C 2,5 C 63 % 74 % 66 % 1015,9 hPa 0,0 l/m 7,2 km/h (2 Bft) W 270 0 min 1,3 UV-I 11,0 C 20,7 C 11,1 km/h (2 Bft)
29.09.2012 14:05 18,1 C 18,4 C 16,8 C 20,2 C 20,2 C 2,1 C 64 % 74 % 55 % 1015,7 hPa 0,0 l/m 7,4 km/h (2 Bft) W-SW 247 0 min 1,2 UV-I 11,2 C 20,2 C 3,1 km/h (1 Bft)
29.09.2012 14:10 18,0 C 18,4 C 16,8 C 20,0 C 20,0 C 2,0 C 64 % 74 % 53 % 1015,7 hPa 0,0 l/m 6,3 km/h (2 Bft) SW 225 0 min 1,2 UV-I 11,1 C 20,0 C 5,3 km/h (1 Bft)
29.09.2012 14:15 18,1 C 18,4 C 16,9 C 20,5 C 20,5 C 2,4 C 65 % 75 % 63 % 1015,7 hPa 0,0 l/m 5,1 km/h (1 Bft) SW 225 0 min 1,4 UV-I 11,4 C 20,5 C 5,8 km/h (2 Bft)
29.09.2012 14:20 18,3 C 18,4 C 17,3 C 21,7 C 21,7 C 3,4 C 64 % 75 % 89 % 1015,7 hPa 0,0 l/m 5,6 km/h (1 Bft) W 270 5 min 1,3 UV-I 11,4 C 21,7 C 8,9 km/h (2 Bft)
29.09.2012 14:25 18,4 C 18,3 C 17,2 C 22,1 C 22,1 C 3,7 C 62 % 73 % 97 % 1015,4 hPa 0,0 l/m 6,6 km/h (2 Bft) S 180 5 min 1,2 UV-I 11,0 C 22,1 C 9,2 km/h (2 Bft)
29.09.2012 14:30 18,5 C 18,4 C 17,3 C 22,3 C 22,3 C 3,8 C 63 % 73 % 100 % 1015,4 hPa 0,0 l/m 6,3 km/h (2 Bft) N-NW 337 5 min 1,3 UV-I 11,3 C 22,3 C 3,1 km/h (1 Bft)
29.09.2012 14:35 18,5 C 18,4 C 17,3 C 22,1 C 22,1 C 3,6 C 60 % 72 % 95 % 1015,4 hPa 0,0 l/m 5,8 km/h (2 Bft) W-SW 247 5 min 1,3 UV-I 10,6 C 22,1 C 8,5 km/h (2 Bft)
29.09.2012 14:40 18,6 C 18,4 C 17,5 C 21,9 C 21,9 C 3,3 C 61 % 72 % 87 % 1015,4 hPa 0,0 l/m 6,4 km/h (2 Bft) W-SW 247 5 min 1,2 UV-I 10,9 C 21,9 C 10,5 km/h (2 Bft)
29.09.2012 14:45 18,7 C 18,4 C 17,6 C 22,1 C 22,1 C 3,4 C 59 % 71 % 89 % 1015,2 hPa 0,0 l/m 7,2 km/h (2 Bft) SW 225 5 min 1,2 UV-I 10,5 C 22,1 C 9,5 km/h (2 Bft)
29.09.2012 14:50 18,7 C 18,4 C 17,6 C 21,8 C 21,8 C 3,1 C 58 % 69 % 82 % 1015,2 hPa 0,0 l/m 8,0 km/h (2 Bft) SW 225 0 min 1,2 UV-I 10,3 C 21,8 C 18,0 km/h (3 Bft)
29.09.2012 14:55 18,7 C 18,5 C 17,7 C 21,6 C 21,6 C 2,9 C 59 % 69 % 76 % 1015,2 hPa 0,0 l/m 8,2 km/h (2 Bft) W-SW 247 0 min 1,1 UV-I 10,5 C 21,6 C 23,8 km/h (4 Bft)
29.09.2012 15:00 18,7 C 18,5 C 17,6 C 21,4 C 21,4 C 2,7 C 56 % 66 % 71 % 1015,2 hPa 0,0 l/m 9,5 km/h (2 Bft) W-SW 247 0 min 1,3 UV-I 9,7 C 21,4 C 8,9 km/h (2 Bft)
29.09.2012 15:05 18,7 C 18,5 C 17,6 C 21,1 C 21,1 C 2,4 C 57 % 67 % 63 % 1015,2 hPa 0,0 l/m 9,2 km/h (2 Bft) S-SW 202 0 min 1,2 UV-I 10,0 C 21,1 C 7,7 km/h (2 Bft)
29.09.2012 15:10 18,5 C 18,5 C 17,5 C 20,6 C 20,6 C 2,1 C 61 % 69 % 55 % 1015,2 hPa 0,0 l/m 6,4 km/h (2 Bft) SW 225 0 min 1,1 UV-I 10,8 C 20,6 C 3,1 km/h (1 Bft)
29.09.2012 15:15 18,4 C 18,5 C 17,3 C 20,2 C 20,2 C 1,8 C 62 % 70 % 47 % 1015,2 hPa 0,0 l/m 4,8 km/h (1 Bft) W-SW 247 0 min 0,9 UV-I 11,0 C 20,2 C 4,5 km/h (1 Bft)
29.09.2012 15:20 18,2 C 18,5 C 17,2 C 19,9 C 19,9 C 1,7 C 63 % 71 % 45 % 1015,2 hPa 0,0 l/m 4,0 km/h (1 Bft) S 180 0 min 0,7 UV-I 11,0 C 19,9 C 3,4 km/h (1 Bft)
29.09.2012 15:25 18,3 C 18,6 C 17,4 C 20,8 C 20,8 C 2,5 C 63 % 73 % 66 % 1015,2 hPa 0,0 l/m 4,5 km/h (1 Bft) S-SW 202 0 min 0,8 UV-I 11,1 C 20,8 C 6,0 km/h (2 Bft)
29.09.2012 15:30 18,8 C 18,6 C 17,6 C 22,1 C 22,1 C 3,3 C 63 % 72 % 87 % 1015,2 hPa 0,0 l/m 4,3 km/h (1 Bft) N-NW 337 5 min 1,0 UV-I 11,6 C 22,1 C 3,4 km/h (1 Bft)
29.09.2012 15:35 18,8 C 18,6 C 17,5 C 21,8 C 21,8 C 3,0 C 62 % 72 % 79 % 1015,2 hPa 0,0 l/m 4,3 km/h (1 Bft) S 180 0 min 0,9 UV-I 11,4 C 21,8 C 4,2 km/h (1 Bft)
29.09.2012 15:40 18,9 C 18,6 C 17,5 C 21,4 C 21,4 C 2,5 C 61 % 72 % 66 % 1015,2 hPa 0,0 l/m 3,5 km/h (1 Bft) W-SW 247 0 min 0,8 UV-I 11,2 C 21,4 C 3,9 km/h (1 Bft)
29.09.2012 15:45 18,9 C 18,6 C 17,4 C 21,1 C 21,1 C 2,2 C 61 % 72 % 58 % 1015,2 hPa 0,0 l/m 3,2 km/h (1 Bft) SW 225 0 min 0,8 UV-I 11,2 C 21,1 C 5,6 km/h (1 Bft)
29.09.2012 15:50 18,9 C 18,6 C 17,2 C 20,5 C 20,5 C 1,6 C 61 % 73 % 42 % 1015,2 hPa 0,0 l/m 3,7 km/h (1 Bft) W-SW 247 0 min 0,7 UV-I 11,2 C 20,5 C 6,0 km/h (2 Bft)
29.09.2012 15:55 18,7 C 18,7 C 17,1 C 20,2 C 20,2 C 1,5 C 62 % 72 % 39 % 1015,2 hPa 0,0 l/m 4,0 km/h (1 Bft) W-SW 247 0 min 0,6 UV-I 11,3 C 20,2 C 5,3 km/h (1 Bft)
29.09.2012 16:00 18,5 C 18,7 C 17,0 C 19,4 C 19,4 C 0,9 C 61 % 72 % 24 % 1015,2 hPa 0,0 l/m 5,1 km/h (1 Bft) SW 225 0 min 0,6 UV-I 10,8 C 19,4 C 5,0 km/h (1 Bft)
29.09.2012 16:05 18,4 C 18,8 C 17,0 C 19,3 C 19,3 C 0,9 C 62 % 73 % 24 % 1014,9 hPa 0,0 l/m 5,3 km/h (1 Bft) W-SW 247 0 min 0,5 UV-I 11,0 C 19,3 C 6,4 km/h (2 Bft)
29.09.2012 16:10 18,7 C 18,7 C 17,3 C 19,8 C 19,8 C 1,1 C 61 % 73 % 29 % 1014,9 hPa 0,0 l/m 4,8 km/h (1 Bft) S-SW 202 0 min 0,5 UV-I 11,0 C 19,8 C 6,1 km/h (2 Bft)
29.09.2012 16:15 18,8 C 18,7 C 17,3 C 20,2 C 20,2 C 1,4 C 60 % 72 % 37 % 1014,9 hPa 0,0 l/m 5,5 km/h (1 Bft) W-SW 247 0 min 0,5 UV-I 10,9 C 20,2 C 7,1 km/h (2 Bft)
29.09.2012 16:20 18,7 C 18,7 C 17,2 C 19,9 C 19,9 C 1,2 C 60 % 72 % 32 % 1014,9 hPa 0,0 l/m 5,5 km/h (1 Bft) W-SW 247 0 min 0,4 UV-I 10,8 C 19,9 C 9,0 km/h (2 Bft)
29.09.2012 16:25 18,7 C 18,7 C 17,2 C 19,8 C 19,8 C 1,1 C 60 % 71 % 29 % 1015,1 hPa 0,0 l/m 5,5 km/h (1 Bft) SW 225 0 min 0,4 UV-I 10,8 C 19,8 C 7,2 km/h (2 Bft)
29.09.2012 16:30 18,7 C 18,8 C 17,3 C 20,0 C 20,0 C 1,3 C 60 % 72 % 34 % 1015,1 hPa 0,0 l/m 5,1 km/h (1 Bft) SW 225 0 min 0,4 UV-I 10,8 C 20,0 C 8,2 km/h (2 Bft)
29.09.2012 16:35 18,7 C 18,8 C 17,2 C 19,9 C 19,9 C 1,2 C 60 % 71 % 32 % 1015,1 hPa 0,0 l/m 5,3 km/h (1 Bft) W-SW 247 0 min 0,3 UV-I 10,8 C 19,9 C 5,6 km/h (1 Bft)
29.09.2012 16:40 18,5 C 18,8 C 17,1 C 19,7 C 19,7 C 1,2 C 61 % 72 % 32 % 1015,1 hPa 0,0 l/m 4,3 km/h (1 Bft) W-SW 247 0 min 0,2 UV-I 10,8 C 19,7 C 4,8 km/h (1 Bft)
29.09.2012 16:45 18,4 C 18,8 C 17,1 C 19,7 C 19,7 C 1,3 C 60 % 72 % 34 % 1015,1 hPa 0,0 l/m 3,9 km/h (1 Bft) W-SW 247 0 min 0,2 UV-I 10,5 C 19,7 C 2,7 km/h (1 Bft)
29.09.2012 16:50 18,3 C 18,8 C 16,9 C 19,2 C 19,2 C 0,9 C 61 % 72 % 24 % 1015,1 hPa 0,0 l/m 4,0 km/h (1 Bft) W-SW 247 0 min 0,1 UV-I 10,6 C 19,2 C 8,2 km/h (2 Bft)
29.09.2012 16:55 18,1 C 18,9 C 16,9 C 18,8 C 18,8 C 0,7 C 62 % 72 % 18 % 1015,1 hPa 0,0 l/m 3,7 km/h (1 Bft) W-SW 247 0 min 0,0 UV-I 10,7 C 18,8 C 3,5 km/h (1 Bft)
29.09.2012 17:00 18,0 C 19,0 C 16,8 C 18,7 C 18,7 C 0,7 C 62 % 72 % 18 % 1015,1 hPa 0,0 l/m 3,9 km/h (1 Bft) W-SW 247 0 min 0,1 UV-I 10,6 C 18,7 C 4,7 km/h (1 Bft)
29.09.2012 17:05 18,0 C 19,0 C 16,7 C 18,5 C 18,5 C 0,5 C 62 % 73 % 13 % 1015,0 hPa 0,0 l/m 3,2 km/h (1 Bft) W-SW 247 0 min 0,0 UV-I 10,6 C 18,5 C 5,3 km/h (1 Bft)
29.09.2012 17:10 17,9 C 19,0 C 16,5 C 18,4 C 18,4 C 0,5 C 63 % 73 % 13 % 1015,0 hPa 0,0 l/m 2,7 km/h (1 Bft) W-SW 247 0 min 0,0 UV-I 10,8 C 18,4 C 2,3 km/h (1 Bft)
29.09.2012 17:15 17,8 C 19,0 C 16,5 C 18,5 C 18,5 C 0,7 C 63 % 74 % 18 % 1015,0 hPa 0,0 l/m 2,4 km/h (1 Bft) S 180 0 min 0,0 UV-I 10,7 C 18,5 C 3,2 km/h (1 Bft)
29.09.2012 17:20 17,8 C 19,0 C 16,5 C 18,8 C 18,8 C 1,0 C 64 % 74 % 26 % 1015,0 hPa 0,0 l/m 2,9 km/h (1 Bft) O-SO 112 0 min 0,0 UV-I 10,9 C 18,8 C 2,7 km/h (1 Bft)
29.09.2012 17:25 17,9 C 19,0 C 16,5 C 18,9 C 18,9 C 1,0 C 64 % 74 % 26 % 1015,1 hPa 0,0 l/m 3,2 km/h (1 Bft) S-SW 202 0 min 0,0 UV-I 11,0 C 18,9 C 3,5 km/h (1 Bft)
29.09.2012 17:30 17,9 C 19,0 C 16,6 C 19,1 C 19,1 C 1,2 C 64 % 74 % 32 % 1015,1 hPa 0,0 l/m 2,9 km/h (1 Bft) S 180 0 min 0,0 UV-I 11,0 C 19,1 C 4,0 km/h (1 Bft)
29.09.2012 17:35 17,7 C 19,0 C 16,5 C 18,9 C 18,9 C 1,2 C 64 % 74 % 32 % 1015,1 hPa 0,0 l/m 2,6 km/h (1 Bft) S-SW 202 0 min 0,0 UV-I 10,8 C 18,9 C 2,9 km/h (1 Bft)
29.09.2012 17:40 17,7 C 19,1 C 16,3 C 18,2 C 18,2 C 0,5 C 65 % 74 % 13 % 1015,1 hPa 0,0 l/m 2,4 km/h (1 Bft) W-SW 247 0 min 0,0 UV-I 11,0 C 18,2 C 2,6 km/h (1 Bft)
29.09.2012 17:45 17,5 C 19,1 C 16,3 C 17,9 C 17,9 C 0,4 C 65 % 75 % 11 % 1015,4 hPa 0,0 l/m 2,4 km/h (1 Bft) SW 225 0 min 0,0 UV-I 10,8 C 17,9 C 0,0 km/h (0 Bft)
29.09.2012 17:50 17,5 C 19,1 C 16,1 C 17,5 C 17,5 C 0,0 C 65 % 75 % 0 % 1015,4 hPa 0,0 l/m 1,8 km/h (1 Bft) W-SW 247 0 min 0,0 UV-I 10,8 C 17,5 C 0,0 km/h (0 Bft)
29.09.2012 17:55 17,3 C 19,1 C 16,0 C 17,4 C 17,4 C 0,1 C 66 % 76 % 3 % 1015,4 hPa 0,0 l/m 1,0 km/h (0 Bft) SW 225 0 min 0,0 UV-I 10,9 C 17,4 C 1,6 km/h (1 Bft)
29.09.2012 18:00 17,3 C 19,1 C 15,9 C 17,3 C 17,2 C 0,0 C 66 % 76 % 0 % 1015,4 hPa 0,0 l/m 0,5 km/h (0 Bft) W 270 0 min 0,0 UV-I 10,9 C 17,2 C 0,0 km/h (0 Bft)
29.09.2012 18:05 17,2 C 19,1 C 15,9 C 17,1 C 17,0 C 0,0 C 66 % 76 % 0 % 1015,5 hPa 0,0 l/m 0,5 km/h (0 Bft) O 90 0 min 0,0 UV-I 10,8 C 17,0 C 0,0 km/h (0 Bft)
29.09.2012 18:10 17,0 C 19,2 C 15,7 C 16,9 C 16,7 C 0,0 C 67 % 77 % 0 % 1015,5 hPa 0,0 l/m 0,0 km/h (0 Bft) S 180 0 min 0,0 UV-I 10,8 C 16,7 C 0,0 km/h (0 Bft)
29.09.2012 18:15 16,9 C 19,2 C 15,6 C 16,8 C 16,5 C 0,0 C 68 % 78 % 0 % 1015,5 hPa 0,0 l/m 0,0 km/h (0 Bft) O 90 0 min 0,0 UV-I 11,0 C 16,5 C 0,0 km/h (0 Bft)
29.09.2012 18:20 16,7 C 19,2 C 15,5 C 16,5 C 16,0 C 0,0 C 69 % 78 % 0 % 1015,5 hPa 0,0 l/m 0,0 km/h (0 Bft) O-NO 67 0 min 0,0 UV-I 11,0 C 16,0 C 0,0 km/h (0 Bft)
29.09.2012 18:25 16,5 C 19,2 C 15,3 C 16,3 C 15,8 C 0,0 C 70 % 79 % 0 % 1015,4 hPa 0,0 l/m 0,0 km/h (0 Bft) O-NO 67 0 min 0,0 UV-I 11,0 C 15,8 C 0,0 km/h (0 Bft)
29.09.2012 18:30 16,2 C 19,2 C 15,2 C 16,0 C 15,6 C 0,0 C 71 % 80 % 0 % 1015,4 hPa 0,0 l/m 0,0 km/h (0 Bft) W 270 0 min 0,0 UV-I 10,9 C 15,6 C 0,0 km/h (0 Bft)
29.09.2012 18:35 16,2 C 19,2 C 15,1 C 16,0 C 15,5 C 0,0 C 72 % 80 % 0 % 1015,4 hPa 0,0 l/m 0,0 km/h (0 Bft) W 270 0 min 0,0 UV-I 11,1 C 15,5 C 0,0 km/h (0 Bft)
29.09.2012 18:46 15,9 C 19,3 C 15,1 C 15,6 C 15,1 C 0,0 C 74 % 82 % 0 % 1015,5 hPa 0,0 l/m 0,2 km/h (0 Bft) N 0 0 min 0,0 UV-I 11,3 C 15,1 C 0,0 km/h (0 Bft)
29.09.2012 18:55 15,7 C 19,3 C 14,9 C 15,5 C 15,0 C 0,0 C 75 % 82 % 0 % 1015,5 hPa 0,0 l/m 0,2 km/h (0 Bft) W-SW 247 0 min 0,0 UV-I 11,3 C 15,0 C 0,0 km/h (0 Bft)
29.09.2012 19:00 15,6 C 19,2 C 14,9 C 15,4 C 15,0 C 0,0 C 74 % 82 % 0 % 1015,5 hPa 0,0 l/m 2,1 km/h (1 Bft) W-SW 247 0 min 0,0 UV-I 11,0 C 15,0 C 7,7 km/h (2 Bft)
29.09.2012 19:05 15,6 C 19,3 C 15,0 C 15,5 C 15,2 C 0,0 C 73 % 81 % 0 % 1015,8 hPa 0,0 l/m 3,2 km/h (1 Bft) S 180 0 min 0,0 UV-I 10,8 C 15,2 C 3,7 km/h (1 Bft)
29.09.2012 19:10 15,7 C 19,2 C 15,0 C 15,5 C 15,2 C 0,0 C 71 % 80 % 0 % 1015,8 hPa 0,0 l/m 3,4 km/h (1 Bft) SW 225 0 min 0,0 UV-I 10,5 C 15,2 C 8,9 km/h (2 Bft)
29.09.2012 19:15 15,6 C 19,2 C 14,9 C 15,5 C 15,4 C 0,0 C 70 % 79 % 0 % 1015,8 hPa 0,0 l/m 3,7 km/h (1 Bft) SW 225 0 min 0,0 UV-I 10,1 C 15,4 C 4,5 km/h (1 Bft)
29.09.2012 19:20 15,7 C 19,3 C 14,9 C 15,6 C 15,4 C 0,0 C 68 % 78 % 0 % 1015,8 hPa 0,0 l/m 3,7 km/h (1 Bft) W-SW 247 0 min 0,0 UV-I 9,8 C 15,4 C 3,2 km/h (1 Bft)
29.09.2012 19:25 15,7 C 19,3 C 14,8 C 15,6 C 15,4 C 0,0 C 68 % 78 % 0 % 1016,1 hPa 0,0 l/m 3,1 km/h (1 Bft) S-SW 202 0 min 0,0 UV-I 9,8 C 15,4 C 2,9 km/h (1 Bft)
29.09.2012 19:30 15,6 C 19,3 C 14,8 C 15,5 C 15,3 C 0,0 C 68 % 78 % 0 % 1016,1 hPa 0,0 l/m 2,7 km/h (1 Bft) W-SW 247 0 min 0,0 UV-I 9,7 C 15,3 C 3,2 km/h (1 Bft)
29.09.2012 19:35 15,6 C 19,3 C 14,8 C 15,5 C 15,3 C 0,0 C 68 % 78 % 0 % 1016,1 hPa 0,0 l/m 2,7 km/h (1 Bft) W 270 0 min 0,0 UV-I 9,7 C 15,3 C 2,7 km/h (1 Bft)
29.09.2012 19:40 15,6 C 19,3 C 14,8 C 15,5 C 15,3 C 0,0 C 67 % 77 % 0 % 1016,1 hPa 0,0 l/m 3,5 km/h (1 Bft) W-SW 247 0 min 0,0 UV-I 9,5 C 15,3 C 6,6 km/h (2 Bft)
29.09.2012 19:45 15,6 C 19,3 C 14,7 C 15,5 C 15,3 C 0,0 C 67 % 77 % 0 % 1016,2 hPa 0,0 l/m 4,3 km/h (1 Bft) S-SW 202 0 min 0,0 UV-I 9,5 C 15,3 C 5,0 km/h (1 Bft)
29.09.2012 19:50 15,5 C 19,3 C 14,7 C 15,4 C 15,3 C 0,0 C 67 % 77 % 0 % 1016,2 hPa 0,0 l/m 4,3 km/h (1 Bft) SW 225 0 min 0,0 UV-I 9,4 C 15,3 C 5,0 km/h (1 Bft)
29.09.2012 19:55 15,5 C 19,3 C 14,7 C 15,4 C 15,3 C 0,0 C 66 % 76 % 0 % 1016,2 hPa 0,0 l/m 4,3 km/h (1 Bft) NW 315 0 min 0,0 UV-I 9,2 C 15,3 C 6,9 km/h (2 Bft)
29.09.2012 20:00 15,5 C 19,3 C 14,7 C 15,4 C 15,2 C 0,0 C 66 % 75 % 0 % 1016,2 hPa 0,0 l/m 4,2 km/h (1 Bft) S 180 0 min 0,0 UV-I 9,2 C 15,2 C 7,4 km/h (2 Bft)
29.09.2012 20:05 15,5 C 19,3 C 14,6 C 15,4 C 15,2 C 0,0 C 65 % 75 % 0 % 1016,6 hPa 0,0 l/m 4,7 km/h (1 Bft) W-SW 247 0 min 0,0 UV-I 8,9 C 15,2 C 6,0 km/h (2 Bft)
29.09.2012 20:10 15,5 C 19,3 C 14,7 C 15,4 C 15,2 C 0,0 C 65 % 74 % 0 % 1016,6 hPa 0,0 l/m 5,1 km/h (1 Bft) SO 135 0 min 0,0 UV-I 8,9 C 15,2 C 6,3 km/h (2 Bft)
29.09.2012 20:15 15,4 C 19,3 C 14,7 C 15,3 C 15,2 C 0,0 C 64 % 75 % 0 % 1016,6 hPa 0,0 l/m 4,2 km/h (1 Bft) W 270 0 min 0,0 UV-I 8,6 C 15,2 C 3,7 km/h (1 Bft)
29.09.2012 20:20 15,3 C 19,4 C 14,5 C 15,2 C 15,1 C 0,0 C 64 % 74 % 0 % 1016,6 hPa 0,0 l/m 4,7 km/h (1 Bft) W-SW 247 0 min 0,0 UV-I 8,5 C 15,1 C 8,9 km/h (2 Bft)
29.09.2012 20:25 15,2 C 19,4 C 14,5 C 15,1 C 15,0 C 0,0 C 64 % 74 % 0 % 1016,9 hPa 0,0 l/m 4,7 km/h (1 Bft) S 180 0 min 0,0 UV-I 8,4 C 15,0 C 5,1 km/h (1 Bft)
29.09.2012 20:30 15,2 C 19,4 C 14,5 C 15,1 C 14,9 C 0,0 C 64 % 73 % 0 % 1016,9 hPa 0,0 l/m 5,5 km/h (1 Bft) W-SW 247 0 min 0,0 UV-I 8,4 C 14,9 C 7,6 km/h (2 Bft)
29.09.2012 20:35 15,1 C 19,4 C 14,4 C 15,0 C 14,9 C 0,0 C 64 % 73 % 0 % 1016,9 hPa 0,0 l/m 6,4 km/h (2 Bft) S 180 0 min 0,0 UV-I 8,3 C 14,9 C 9,2 km/h (2 Bft)
29.09.2012 20:40 15,1 C 19,4 C 14,3 C 15,0 C 14,7 C 0,0 C 64 % 73 % 0 % 1016,9 hPa 0,0 l/m 6,6 km/h (2 Bft) SW 225 0 min 0,0 UV-I 8,3 C 14,7 C 5,8 km/h (2 Bft)
29.09.2012 20:45 14,9 C 19,4 C 14,2 C 14,8 C 14,6 C 0,0 C 64 % 72 % 0 % 1017,4 hPa 0,0 l/m 6,1 km/h (2 Bft) W-SW 247 0 min 0,0 UV-I 8,2 C 14,6 C 4,8 km/h (1 Bft)
29.09.2012 20:50 14,8 C 19,4 C 14,2 C 14,7 C 14,5 C 0,0 C 63 % 72 % 0 % 1017,4 hPa 0,0 l/m 6,4 km/h (2 Bft) S 180 0 min 0,0 UV-I 7,8 C 14,5 C 9,7 km/h (2 Bft)
29.09.2012 20:55 14,6 C 19,4 C 14,0 C 14,5 C 14,3 C 0,0 C 64 % 72 % 0 % 1017,4 hPa 0,0 l/m 6,3 km/h (2 Bft) N 360 0 min 0,0 UV-I 7,9 C 14,3 C 5,0 km/h (1 Bft)
29.09.2012 21:00 14,5 C 19,4 C 14,0 C 14,3 C 14,0 C 0,0 C 64 % 72 % 0 % 1017,4 hPa 0,0 l/m 5,8 km/h (2 Bft) W-SW 247 0 min 0,0 UV-I 7,8 C 14,0 C 7,2 km/h (2 Bft)
29.09.2012 21:05 14,5 C 19,4 C 13,9 C 14,3 C 14,0 C 0,0 C 64 % 72 % 0 % 1017,8 hPa 0,0 l/m 5,1 km/h (1 Bft) W-SW 247 0 min 0,0 UV-I 7,8 C 14,0 C 4,0 km/h (1 Bft)
29.09.2012 21:10 14,3 C 19,4 C 13,8 C 14,1 C 13,8 C 0,0 C 64 % 72 % 0 % 1017,8 hPa 0,0 l/m 5,0 km/h (1 Bft) W 270 0 min 0,0 UV-I 7,6 C 13,8 C 5,6 km/h (1 Bft)
29.09.2012 21:15 14,2 C 19,4 C 13,7 C 14,0 C 13,7 C 0,0 C 64 % 73 % 0 % 1017,8 hPa 0,0 l/m 4,8 km/h (1 Bft) W-SW 247 0 min 0,0 UV-I 7,5 C 13,7 C 3,1 km/h (1 Bft)
29.09.2012 21:20 14,0 C 19,4 C 13,7 C 13,9 C 13,6 C 0,0 C 64 % 73 % 0 % 1017,8 hPa 0,0 l/m 5,1 km/h (1 Bft) S-SW 202 0 min 0,0 UV-I 7,3 C 13,6 C 6,4 km/h (2 Bft)
29.09.2012 21:25 14,0 C 19,4 C 13,5 C 13,8 C 13,5 C 0,0 C 65 % 73 % 0 % 1018,0 hPa 0,0 l/m 5,0 km/h (1 Bft) W-SW 247 0 min 0,0 UV-I 7,5 C 13,5 C 5,5 km/h (1 Bft)
29.09.2012 21:30 13,9 C 19,4 C 13,4 C 13,7 C 13,4 C 0,0 C 65 % 73 % 0 % 1018,0 hPa 0,0 l/m 4,8 km/h (1 Bft) SW 225 0 min 0,0 UV-I 7,4 C 13,4 C 10,3 km/h (2 Bft)
29.09.2012 21:35 13,8 C 19,4 C 13,4 C 13,6 C 13,2 C 0,0 C 65 % 73 % 0 % 1018,0 hPa 0,0 l/m 5,0 km/h (1 Bft) SW 225 0 min 0,0 UV-I 7,3 C 13,2 C 4,3 km/h (1 Bft)
29.09.2012 21:40 13,6 C 19,4 C 13,2 C 13,4 C 13,0 C 0,0 C 65 % 73 % 0 % 1018,0 hPa 0,0 l/m 4,3 km/h (1 Bft) W-SW 247 0 min 0,0 UV-I 7,1 C 13,0 C 2,3 km/h (1 Bft)
29.09.2012 21:45 13,5 C 19,4 C 13,2 C 13,3 C 12,8 C 0,0 C 65 % 73 % 0 % 1018,0 hPa 0,0 l/m 4,0 km/h (1 Bft) W-SW 247 0 min 0,0 UV-I 7,1 C 12,8 C 6,1 km/h (2 Bft)
29.09.2012 21:50 13,3 C 19,4 C 13,1 C 13,0 C 12,5 C 0,0 C 66 % 73 % 0 % 1018,0 hPa 0,0 l/m 3,7 km/h (1 Bft) W-SW 247 0 min 0,0 UV-I 7,1 C 12,5 C 3,9 km/h (1 Bft)
29.09.2012 21:55 13,3 C 19,4 C 12,8 C 13,0 C 12,3 C 0,0 C 66 % 74 % 0 % 1018,0 hPa 0,0 l/m 3,2 km/h (1 Bft) W-SW 247 0 min 0,0 UV-I 7,1 C 12,3 C 3,5 km/h (1 Bft)
29.09.2012 22:00 13,1 C 19,4 C 12,8 C 12,7 C 12,0 C 0,0 C 66 % 74 % 0 % 1018,0 hPa 0,0 l/m 2,6 km/h (1 Bft) SW 225 0 min 0,0 UV-I 6,9 C 12,0 C 4,0 km/h (1 Bft)
29.09.2012 22:05 12,9 C 19,4 C 12,7 C 12,5 C 11,8 C 0,0 C 66 % 74 % 0 % 1018,2 hPa 0,0 l/m 2,6 km/h (1 Bft) SW 225 0 min 0,0 UV-I 6,7 C 11,8 C 2,4 km/h (1 Bft)
29.09.2012 22:10 12,7 C 19,4 C 12,5 C 12,3 C 11,6 C 0,0 C 67 % 75 % 0 % 1018,2 hPa 0,0 l/m 3,2 km/h (1 Bft) W-SW 247 0 min 0,0 UV-I 6,7 C 11,6 C 2,6 km/h (1 Bft)
29.09.2012 22:15 12,7 C 19,4 C 12,5 C 12,3 C 11,5 C 0,0 C 67 % 75 % 0 % 1018,2 hPa 0,0 l/m 3,1 km/h (1 Bft) SW 225 0 min 0,0 UV-I 6,7 C 11,5 C 2,9 km/h (1 Bft)
29.09.2012 22:20 12,4 C 19,4 C 12,3 C 12,0 C 11,2 C 0,0 C 67 % 75 % 0 % 1018,2 hPa 0,0 l/m 2,7 km/h (1 Bft) SW 225 0 min 0,0 UV-I 6,4 C 11,2 C 2,9 km/h (1 Bft)
29.09.2012 22:25 12,3 C 19,4 C 12,3 C 11,9 C 11,1 C 0,0 C 68 % 75 % 0 % 1018,6 hPa 0,0 l/m 2,4 km/h (1 Bft) W-SW 247 0 min 0,0 UV-I 6,6 C 11,1 C 2,4 km/h (1 Bft)
29.09.2012 22:30 12,1 C 19,3 C 12,0 C 11,7 C 10,8 C 0,0 C 68 % 76 % 0 % 1018,6 hPa 0,0 l/m 2,1 km/h (1 Bft) W 270 0 min 0,0 UV-I 6,4 C 10,8 C 2,3 km/h (1 Bft)
29.09.2012 22:35 12,0 C 19,3 C 12,0 C 11,6 C 10,7 C 0,0 C 68 % 76 % 0 % 1018,6 hPa 0,0 l/m 1,9 km/h (1 Bft) SW 225 0 min 0,0 UV-I 6,3 C 10,7 C 2,1 km/h (1 Bft)
29.09.2012 22:40 11,7 C 19,3 C 11,9 C 11,3 C 10,4 C 0,0 C 69 % 76 % 0 % 1018,6 hPa 0,0 l/m 1,1 km/h (1 Bft) SW 225 0 min 0,0 UV-I 6,2 C 10,4 C 0,0 km/h (0 Bft)
29.09.2012 22:45 11,7 C 19,3 C 11,8 C 11,2 C 10,2 C 0,0 C 70 % 76 % 0 % 1018,6 hPa 0,0 l/m 1,0 km/h (0 Bft) SW 225 0 min 0,0 UV-I 6,4 C 10,2 C 0,0 km/h (0 Bft)
29.09.2012 22:50 11,6 C 19,3 C 11,6 C 11,1 C 10,1 C 0,0 C 71 % 76 % 0 % 1018,6 hPa 0,0 l/m 1,1 km/h (1 Bft) O-NO 67 0 min 0,0 UV-I 6,5 C 10,1 C 0,0 km/h (0 Bft)
29.09.2012 22:55 11,4 C 19,3 C 11,7 C 10,9 C 10,0 C 0,0 C 71 % 77 % 0 % 1018,6 hPa 0,0 l/m 0,6 km/h (0 Bft) W-SW 247 0 min 0,0 UV-I 6,3 C 10,0 C 0,0 km/h (0 Bft)
29.09.2012 23:00 11,3 C 19,3 C 11,5 C 10,8 C 9,8 C 0,0 C 71 % 77 % 0 % 1018,6 hPa 0,0 l/m 0,5 km/h (0 Bft) SW 225 0 min 0,0 UV-I 6,2 C 9,8 C 0,0 km/h (0 Bft)
29.09.2012 23:05 11,2 C 19,3 C 11,1 C 10,7 C 9,6 C 0,0 C 71 % 77 % 0 % 1019,1 hPa 0,0 l/m 0,3 km/h (0 Bft) S-SW 202 0 min 0,0 UV-I 6,1 C 9,6 C 0,0 km/h (0 Bft)
29.09.2012 23:10 11,0 C 19,4 C 10,7 C 10,4 C 9,3 C 0,0 C 72 % 78 % 0 % 1019,1 hPa 0,0 l/m 0,0 km/h (0 Bft) S-SW 202 0 min 0,0 UV-I 6,2 C 9,3 C 0,0 km/h (0 Bft)
29.09.2012 23:15 10,8 C 19,4 C 10,6 C 10,2 C 9,1 C 0,0 C 73 % 79 % 0 % 1019,1 hPa 0,0 l/m 0,0 km/h (0 Bft) SO 135 0 min 0,0 UV-I 6,2 C 9,1 C 0,0 km/h (0 Bft)
29.09.2012 23:20 10,5 C 19,5 C 10,3 C 10,0 C 8,9 C 0,0 C 73 % 79 % 0 % 1019,1 hPa 0,0 l/m 0,0 km/h (0 Bft) O-NO 67 0 min 0,0 UV-I 5,9 C 8,9 C 0,0 km/h (0 Bft)
29.09.2012 23:25 10,4 C 19,5 C 10,3 C 9,9 C 8,8 C 0,0 C 75 % 80 % 0 % 1018,6 hPa 0,0 l/m 0,0 km/h (0 Bft) O-NO 67 0 min 0,0 UV-I 6,2 C 8,8 C 0,0 km/h (0 Bft)
29.09.2012 23:30 10,2 C 19,5 C 10,1 C 9,7 C 8,6 C 0,0 C 76 % 81 % 0 % 1018,6 hPa 0,0 l/m 0,0 km/h (0 Bft) O-NO 67 0 min 0,0 UV-I 6,2 C 8,6 C 0,0 km/h (0 Bft)
29.09.2012 23:35 10,0 C 19,5 C 10,0 C 9,5 C 8,5 C 0,0 C 76 % 81 % 0 % 1018,6 hPa 0,0 l/m 0,0 km/h (0 Bft) O 90 0 min 0,0 UV-I 6,0 C 8,5 C 0,0 km/h (0 Bft)
29.09.2012 23:40 9,9 C 19,5 C 9,9 C 9,4 C 8,3 C 0,0 C 77 % 81 % 0 % 1018,6 hPa 0,0 l/m 0,0 km/h (0 Bft) O-NO 67 0 min 0,0 UV-I 6,1 C 8,3 C 0,0 km/h (0 Bft)
29.09.2012 23:45 9,7 C 19,5 C 9,7 C 9,2 C 8,3 C 0,0 C 78 % 82 % 0 % 1019,3 hPa 0,0 l/m 0,2 km/h (0 Bft) O-NO 67 0 min 0,0 UV-I 6,1 C 8,3 C 0,0 km/h (0 Bft)
29.09.2012 23:50 9,6 C 19,5 C 9,7 C 9,1 C 8,2 C 0,0 C 78 % 82 % 0 % 1019,3 hPa 0,0 l/m 0,5 km/h (0 Bft) O-NO 67 0 min 0,0 UV-I 6,0 C 8,2 C 0,0 km/h (0 Bft)
29.09.2012 23:55 9,4 C 19,5 C 9,5 C 9,0 C 8,1 C 0,0 C 78 % 82 % 0 % 1019,3 hPa 0,0 l/m 0,3 km/h (0 Bft) O 90 0 min 0,0 UV-I 5,8 C 8,1 C 0,0 km/h (0 Bft)
_ Min-Zeit 06:50 12:05 06:21 06:21 06:34 00:00 15:00 15:00 00:00 16:05 - 00:00 - - - 00:00 06:50 06:34 00:00
Minimum _ 3,9 C 18,0 C 5,7 C 4,1 C 4,0 C 0,0 C 56 % 66 % 0 % 1014,9 hPa - 0,0 km/h (0 Bft) - - - 0,0 UV-I 2,4 C 4,0 C 0,0 km/h (0 Bft)
_ Max-Zeit 15:40 00:00 14:55 13:10 13:10 13:10 10:05 08:15 10:55 23:45 00:00 15:00 - - 10:47 13:05 13:05 13:10 14:55
Maximum _ 18,9 C 19,9 C 17,7 C 23,6 C 23,6 C 5,5 C 93 % 93 % 100 % 1019,3 hPa 0,0 l/m 9,5 km/h
W-SW (2 Bft)
- - 7 min 2,5 UV-I 11,9 C 23,6 C 23,8 km/h
W-SW (4 Bft)
Durchschnitt _ 11,1 C 19,0 C 11,4 C 12,0 C 11,9 C 1,0 C 78 % 83 % 25 % 1017,5 hPa #0,0 l/m 2,0 km/h (1 Bft) W-SW - #2:35 h 0,9 UV-I 7,2 C 11,9 C 2,5 km/h (1 Bft)
2012 www.wetterstation-wechselburg.de